Time;durP1;ratioP1;P1;durP2;ratioP2;P2;SDS_P1;SDS_P2;PMS_P1;PMS_P2;Temp;Humidity;BMP_temperature;BMP_pressure;BME280_temperature;BME280_humidity;BME280_pressure;Samples;Min_cycle;Max_cycle;Signal;HPM_P1;HPM_P2
2023/01/18 00:00:43;;;;;;;;;;;;;;;-0.44;83.75;99100.73;106856;1263;123882;-87
2023/01/18 00:03:25;;;;;;;;;;;;;;;-0.46;83.92;99103.38;106788;1257;61180;-89
2023/01/18 00:05:53;;;;;;;;;;;;;;;-0.48;84.07;99098.82;106773;1257;124226;-89
2023/01/18 00:08:23;;;;;;;;;;;;;;;-0.51;83.97;99095.73;106775;1265;65768;-89
2023/01/18 00:10:50;;;;;;;;;;;;;;;-0.56;83.93;99089.20;106959;1259;124447;-90
2023/01/18 00:13:51;;;;;;;;;;;;;;;-0.60;83.73;99084.89;107010;1263;61205;-87
2023/01/18 00:16:21;;;;;;;;;;;;;;;-0.65;83.84;99082.44;107092;1257;61168;-89
2023/01/18 00:18:52;;;;;;;;;;;;;;;-0.68;83.86;99078.14;106741;1263;126598;-87
2023/01/18 00:21:27;;;;;;;;;;;;;;;-0.72;83.90;99078.33;106840;1256;64498;-87
2023/01/18 00:24:01;;;;;;;;;;;;;;;-0.75;83.97;99078.04;106599;1257;124490;-87
2023/01/18 00:26:39;;;;;;;;;;;;;;;-0.78;83.96;99077.73;107061;1257;59328;-89
2023/01/18 00:29:13;;;;;;;;;;;;;;;-0.79;83.97;99081.83;106795;1260;124752;-89
2023/01/18 00:32:03;;;;;;;;;;;;;;;-0.80;84.03;99081.27;106890;1258;74755;-89
2023/01/18 00:34:30;;;;;;;;;;;;;;;-0.82;84.24;99083.29;106945;1260;67054;-89
2023/01/18 00:37:10;;;;;;;;;;;;;;;-0.81;84.09;99086.94;106705;1258;124768;-89
2023/01/18 00:39:46;;;;;;;;;;;;;;;-0.81;84.29;99085.89;106977;1261;61286;-89
2023/01/18 00:45:01;;;;;;;;;;;;;;;-0.80;84.30;99093.65;107060;1257;74710;-88
2023/01/18 00:47:28;;;;;;;;;;;;;;;-0.80;84.17;99091.08;107184;1260;125432;-89
2023/01/18 00:49:55;;;;;;;;;;;;;;;-0.80;84.37;99100.56;107153;1257;72375;-87
2023/01/18 00:52:34;;;;;;;;;;;;;;;-0.80;84.30;99109.02;107036;1257;61349;-87
2023/01/18 00:55:05;;;;;;;;;;;;;;;-0.78;84.53;99110.95;106854;1258;124641;-87
2023/01/18 00:57:47;;;;;;;;;;;;;;;-0.76;84.47;99115.17;107413;1257;74667;-87
2023/01/18 01:00:18;;;;;;;;;;;;;;;-0.78;84.16;99116.66;107218;1257;125374;-87
2023/01/18 01:03:15;;;;;;;;;;;;;;;-0.81;84.20;99126.35;106899;1263;72759;-87
2023/01/18 01:08:49;;;;;;;;;;;;;;;-0.87;84.09;99142.77;107316;1257;61354;-87
2023/01/18 01:11:18;;;;;;;;;;;;;;;-0.92;84.10;99145.64;107097;1257;125232;-87
2023/01/18 01:27:44;;;;;;;;;;;;;;;-0.97;84.15;99171.97;107090;1258;65673;-88
2023/01/18 01:30:13;;;;;;;;;;;;;;;-0.98;84.03;99171.58;106947;1258;124641;-87
2023/01/18 01:32:46;;;;;;;;;;;;;;;-0.99;83.86;99162.74;106987;1258;61335;-87
2023/01/18 01:35:20;;;;;;;;;;;;;;;-1.00;83.97;99165.30;106838;1258;124952;-88
2023/01/18 01:37:48;;;;;;;;;;;;;;;-0.99;83.96;99172.23;106913;1256;75171;-88
2023/01/18 01:40:23;;;;;;;;;;;;;;;-0.98;84.03;99176.21;107091;1257;67397;-87
2023/01/18 01:42:56;;;;;;;;;;;;;;;-0.97;84.19;99175.71;106982;1258;124800;-89
2023/01/18 01:45:23;;;;;;;;;;;;;;;-0.95;84.12;99176.67;107063;1261;61496;-89
2023/01/18 01:50:54;;;;;;;;;;;;;;;-0.93;84.06;99172.97;107083;1260;75122;-87
2023/01/18 01:53:33;;;;;;;;;;;;;;;-0.92;84.03;99170.45;106853;1257;123561;-89
2023/01/18 01:56:07;;;;;;;;;;;;;;;-0.92;84.02;99172.71;107090;1257;72692;-88
2023/01/18 01:58:40;;;;;;;;;;;;;;;-0.90;84.05;99178.09;106984;1260;59347;-87
2023/01/18 02:01:13;;;;;;;;;;;;;;;-0.92;83.96;99180.60;107398;1262;61366;-87
2023/01/18 02:03:42;;;;;;;;;;;;;;;-0.94;84.03;99175.89;106943;1258;75863;-87
2023/01/18 02:06:31;;;;;;;;;;;;;;;-0.93;84.06;99168.87;106734;1261;124698;-87
2023/01/18 02:09:25;;;;;;;;;;;;;;;-0.90;84.09;99165.39;107185;1257;72587;-86
2023/01/18 02:11:52;;;;;;;;;;;;;;;-0.85;84.30;99166.13;107245;1257;124508;-87
2023/01/18 02:14:20;;;;;;;;;;;;;;;-0.81;84.40;99170.27;107045;1258;61246;-87
2023/01/18 02:16:47;;;;;;;;;;;;;;;-0.77;84.24;99174.40;107024;1264;124719;-87
2023/01/18 02:19:27;;;;;;;;;;;;;;;-0.75;84.17;99172.40;107448;1263;67183;-87
2023/01/18 02:21:55;;;;;;;;;;;;;;;-0.79;84.14;99175.52;107231;1257;73919;-87
2023/01/18 02:24:36;;;;;;;;;;;;;;;-0.80;83.99;99172.73;107123;1257;125434;-87
2023/01/18 02:27:22;;;;;;;;;;;;;;;-0.81;83.99;99173.23;107338;1257;62602;-88
2023/01/18 02:30:11;;;;;;;;;;;;;;;-0.81;83.87;99173.89;106999;1257;124551;-89
2023/01/18 02:32:58;;;;;;;;;;;;;;;-0.80;84.17;99165.66;107160;1257;65769;-89
2023/01/18 02:35:56;;;;;;;;;;;;;;;-0.79;84.10;99168.12;107010;1257;124862;-89
2023/01/18 02:47:31;;;;;;;;;;;;;;;-0.85;83.92;99173.38;106956;1257;124535;-88
2023/01/18 02:50:01;;;;;;;;;;;;;;;-0.85;83.90;99179.40;106954;1257;70241;-88
2023/01/18 02:52:46;;;;;;;;;;;;;;;-0.86;84.05;99182.80;106950;1262;61115;-86
2023/01/18 02:55:36;;;;;;;;;;;;;;;-0.88;84.04;99183.20;107038;1257;61331;-87
2023/01/18 02:58:15;;;;;;;;;;;;;;;-0.91;83.52;99188.57;107048;1262;73738;-88
2023/01/18 03:00:48;;;;;;;;;;;;;;;-0.93;83.62;99197.08;107330;1260;124450;-86
2023/01/18 03:03:17;;;;;;;;;;;;;;;-0.95;83.81;99205.42;107105;1257;73532;-87
2023/01/18 03:05:45;;;;;;;;;;;;;;;-0.96;83.79;99206.58;106868;1263;124546;-87
2023/01/18 03:08:19;;;;;;;;;;;;;;;-0.99;83.56;99202.54;107243;1258;61110;-87
2023/01/18 03:11:02;;;;;;;;;;;;;;;-0.99;83.74;99206.49;106834;1257;124615;-87
2023/01/18 03:13:52;;;;;;;;;;;;;;;-0.96;83.89;99207.98;106795;1257;67160;-86
2023/01/18 03:16:56;;;;;;;;;;;;;;;-0.93;83.85;99206.73;107186;1256;71078;-86
2023/01/18 03:34:21;;;;;;;;;;;;;;;-0.84;83.82;99207.00;107237;1257;59315;-88
2023/01/18 03:37:07;;;;;;;;;;;;;;;-0.81;83.77;99202.11;107066;1257;124847;-88
2023/01/18 03:39:41;;;;;;;;;;;;;;;-0.79;83.78;99199.46;107165;1260;73307;-88
2023/01/18 03:42:12;;;;;;;;;;;;;;;-0.76;83.95;99193.73;107098;1257;124777;-88
2023/01/18 03:44:52;;;;;;;;;;;;;;;-0.73;83.77;99191.98;107112;1256;71052;-88
2023/01/18 03:47:19;;;;;;;;;;;;;;;-0.71;83.83;99185.33;107077;1262;124730;-87
2023/01/18 03:49:46;;;;;;;;;;;;;;;-0.67;83.87;99179.13;107204;1262;61259;-88
2023/01/18 03:52:22;;;;;;;;;;;;;;;-0.62;83.92;99174.73;107087;1258;73215;-88
2023/01/18 03:54:54;;;;;;;;;;;;;;;-0.57;83.87;99175.77;107410;1257;124668;-87
2023/01/18 03:57:27;;;;;;;;;;;;;;;-0.55;83.91;99170.37;107541;1257;70404;-85
2023/01/18 04:00:14;;;;;;;;;;;;;;;-0.51;83.91;99165.73;107326;1258;125086;-88
2023/01/18 04:03:03;;;;;;;;;;;;;;;-0.47;83.68;99174.67;107092;1260;61186;-85
2023/01/18 04:05:44;;;;;;;;;;;;;;;-0.44;83.82;99177.05;107019;1257;124822;-85
2023/01/18 04:08:13;;;;;;;;;;;;;;;-0.40;83.78;99172.40;107229;1259;67377;-85
2023/01/18 04:10:43;;;;;;;;;;;;;;;-0.37;83.72;99167.87;107068;1257;72774;-87
2023/01/18 04:13:11;;;;;;;;;;;;;;;-0.38;83.64;99161.43;106826;1256;124406;-86
2023/01/18 04:15:39;;;;;;;;;;;;;;;-0.37;83.59;99167.52;107081;1259;61255;-86
2023/01/18 04:18:06;;;;;;;;;;;;;;;-0.37;83.66;99168.56;107095;1262;124200;-86
2023/01/18 04:20:34;;;;;;;;;;;;;;;-0.37;83.44;99169.25;107235;1256;66759;-87
2023/01/18 04:23:01;;;;;;;;;;;;;;;-0.39;83.16;99171.56;107221;1259;71817;-86
2023/01/18 04:25:31;;;;;;;;;;;;;;;-0.40;83.46;99170.15;107248;1257;61243;-86
2023/01/18 04:27:58;;;;;;;;;;;;;;;-0.42;83.16;99171.11;107166;1257;61328;-87
2023/01/18 04:30:26;;;;;;;;;;;;;;;-0.45;83.28;99170.97;107246;1257;123842;-88
2023/01/18 04:32:56;;;;;;;;;;;;;;;-0.47;83.23;99175.91;107245;1258;65875;-87
2023/01/18 04:35:23;;;;;;;;;;;;;;;-0.49;83.05;99180.11;107030;1257;124020;-88
2023/01/18 04:37:58;;;;;;;;;;;;;;;-0.50;83.38;99181.79;106987;1257;61318;-87
2023/01/18 04:40:25;;;;;;;;;;;;;;;-0.49;83.28;99179.93;107110;1256;61317;-88
2023/01/18 04:43:10;;;;;;;;;;;;;;;-0.50;83.35;99178.16;106848;1257;124307;-87
2023/01/18 04:45:38;;;;;;;;;;;;;;;-0.52;83.32;99187.73;107003;1257;65667;-87
2023/01/18 04:48:14;;;;;;;;;;;;;;;-0.53;83.49;99191.97;107190;1256;123829;-87
2023/01/18 04:50:45;;;;;;;;;;;;;;;-0.56;83.21;99195.80;107345;1257;61305;-87
2023/01/18 04:53:18;;;;;;;;;;;;;;;-0.60;83.08;99199.63;107027;1264;123960;-87
2023/01/18 04:55:57;;;;;;;;;;;;;;;-0.66;83.10;99203.31;107070;1257;74729;-85
2023/01/18 04:58:27;;;;;;;;;;;;;;;-0.71;83.12;99207.74;106982;1257;65457;-86
2023/01/18 05:01:02;;;;;;;;;;;;;;;-0.72;83.17;99204.23;107175;1257;123758;-86
2023/01/18 05:03:39;;;;;;;;;;;;;;;-0.72;83.31;99201.33;107246;1257;59536;-86
2023/01/18 05:06:28;;;;;;;;;;;;;;;-0.73;83.43;99195.95;107177;1260;123900;-88
2023/01/18 05:09:04;;;;;;;;;;;;;;;-0.72;83.55;99199.24;107122;1257;74524;-86
2023/01/18 05:11:34;;;;;;;;;;;;;;;-0.70;83.47;99201.94;107085;1257;124975;-88
2023/01/18 05:14:02;;;;;;;;;;;;;;;-0.69;83.68;99197.52;107236;1257;71599;-87
2023/01/18 05:16:42;;;;;;;;;;;;;;;-0.69;83.87;99196.82;107076;1259;61456;-85
2023/01/18 05:19:19;;;;;;;;;;;;;;;-0.69;83.73;99193.20;106904;1256;124724;-86
2023/01/18 05:21:47;;;;;;;;;;;;;;;-0.69;83.75;99191.98;107147;1258;75730;-86
2023/01/18 05:24:14;;;;;;;;;;;;;;;-0.70;83.56;99197.46;107263;1256;125038;-86
2023/01/18 05:26:43;;;;;;;;;;;;;;;-0.71;83.63;99205.65;107641;1257;73102;-86
2023/01/18 05:29:11;;;;;;;;;;;;;;;-0.67;83.95;99209.13;107526;1257;124795;-86
2023/01/18 05:31:52;;;;;;;;;;;;;;;-0.62;84.01;99213.48;107384;1256;61208;-86
2023/01/18 05:34:19;;;;;;;;;;;;;;;-0.54;84.02;99214.84;107086;1257;74988;-86
2023/01/18 05:36:47;;;;;;;;;;;;;;;-0.51;83.86;99214.64;106970;1261;126200;-86
2023/01/18 05:39:20;;;;;;;;;;;;;;;-0.48;83.83;99222.89;107395;1260;72670;-87
2023/01/18 05:41:50;;;;;;;;;;;;;;;-0.46;83.67;99223.66;107210;1260;124721;-86
2023/01/18 05:44:34;;;;;;;;;;;;;;;-0.44;83.73;99229.27;107351;1256;59311;-87
2023/01/18 05:47:01;;;;;;;;;;;;;;;-0.46;83.59;99228.48;107366;1260;74382;-87
2023/01/18 05:49:29;;;;;;;;;;;;;;;-0.52;83.37;99231.15;106943;1256;66950;-87
2023/01/18 05:52:08;;;;;;;;;;;;;;;-0.53;83.38;99231.80;107147;1256;72699;-87
2023/01/18 05:54:45;;;;;;;;;;;;;;;-0.51;83.50;99222.73;107058;1257;124774;-88
2023/01/18 05:57:34;;;;;;;;;;;;;;;-0.53;83.26;99217.33;107034;1258;61065;-88
2023/01/18 06:00:20;;;;;;;;;;;;;;;-0.55;83.28;99220.52;106888;1257;124806;-89
2023/01/18 06:02:49;;;;;;;;;;;;;;;-0.55;83.43;99224.63;107029;1259;66985;-87
2023/01/18 06:05:38;;;;;;;;;;;;;;;-0.56;83.41;99230.08;106850;1257;124693;-89
2023/01/18 06:09:03;;;;;;;;;;;;;;;-0.55;83.50;99238.44;107211;1257;59432;-88
2023/01/18 06:11:44;;;;;;;;;;;;;;;-0.56;83.19;99239.40;107011;1262;124767;-88
2023/01/18 06:17:07;;;;;;;;;;;;;;;-0.63;83.26;99233.45;106798;1262;124704;-88
2023/01/18 06:20:05;;;;;;;;;;;;;;;-0.64;83.23;99230.80;106909;1260;72373;-87
2023/01/18 06:22:59;;;;;;;;;;;;;;;-0.65;83.02;99223.17;106847;1259;61286;-91
2023/01/18 06:25:53;;;;;;;;;;;;;;;-0.64;83.33;99216.86;106780;1263;61144;-88
2023/01/18 06:28:39;;;;;;;;;;;;;;;-0.62;83.17;99221.05;106856;1263;74114;-93
2023/01/18 06:31:36;;;;;;;;;;;;;;;-0.66;83.06;99227.44;106974;1263;124576;-89
2023/01/18 06:34:11;;;;;;;;;;;;;;;-0.68;83.07;99229.73;106809;1263;72825;-93
2023/01/18 06:36:44;;;;;;;;;;;;;;;-0.69;83.17;99233.86;106591;1268;125430;-87
2023/01/18 06:39:38;;;;;;;;;;;;;;;-0.68;83.14;99221.64;107013;1262;59390;-94
2023/01/18 06:42:11;;;;;;;;;;;;;;;-0.66;83.00;99216.95;106735;1262;124474;-89
2023/01/18 06:44:38;;;;;;;;;;;;;;;-0.64;83.00;99210.10;107253;1264;66131;-90
2023/01/18 06:47:07;;;;;;;;;;;;;;;-0.62;82.94;99210.36;107065;1262;123445;-94
2023/01/18 06:49:40;;;;;;;;;;;;;;;-0.59;83.24;99211.00;107357;1262;61212;-89
2023/01/18 06:52:15;;;;;;;;;;;;;;;-0.57;83.26;99215.08;107039;1262;61293;-93
2023/01/18 06:54:49;;;;;;;;;;;;;;;-0.58;83.04;99218.33;106580;1262;124727;-92
2023/01/18 06:57:38;;;;;;;;;;;;;;;-0.57;83.03;99219.90;106548;1262;68464;-92
2023/01/18 07:03:23;;;;;;;;;;;;;;;-0.52;82.93;99217.72;107069;1262;61360;-91
2023/01/18 07:05:59;;;;;;;;;;;;;;;-0.46;83.21;99215.77;106781;1262;124685;-91
2023/01/18 07:08:34;;;;;;;;;;;;;;;-0.42;83.12;99220.90;106849;1262;73072;-91
2023/01/18 07:11:21;;;;;;;;;;;;;;;-0.39;83.30;99218.61;106692;1264;67286;-90
2023/01/18 07:13:49;;;;;;;;;;;;;;;-0.34;83.26;99218.84;107060;1266;71429;-88
2023/01/18 07:16:17;;;;;;;;;;;;;;;-0.33;83.24;99222.00;106724;1262;61267;-88
2023/01/18 07:22:22;;;;;;;;;;;;;;;-0.31;83.20;99219.48;106774;1260;74575;-89
2023/01/18 07:25:07;;;;;;;;;;;;;;;-0.30;83.22;99219.17;106838;1261;123967;-90
2023/01/18 07:27:57;;;;;;;;;;;;;;;-0.31;83.16;99213.98;106735;1267;72769;-91
2023/01/18 07:30:30;;;;;;;;;;;;;;;-0.32;83.22;99212.02;106592;1260;124499;-92
2023/01/18 07:32:58;;;;;;;;;;;;;;;-0.32;83.39;99214.47;106654;1260;62409;-89
2023/01/18 07:38:49;;;;;;;;;;;;;;;-0.27;83.62;99213.63;107076;1261;65791;-90
2023/01/18 07:41:25;;;;;;;;;;;;;;;-0.21;83.66;99212.86;106900;1261;124916;-90
2023/01/18 07:44:00;;;;;;;;;;;;;;;-0.14;83.72;99212.61;106958;1262;61207;-91
2023/01/18 07:46:30;;;;;;;;;;;;;;;-0.07;83.79;99216.90;107082;1262;60217;-88
2023/01/18 07:49:04;;;;;;;;;;;;;;;0.03;83.74;99221.27;107031;1260;125446;-88
2023/01/18 07:51:32;;;;;;;;;;;;;;;0.13;83.69;99224.98;107191;1260;66775;-88
2023/01/18 07:54:14;;;;;;;;;;;;;;;0.19;83.52;99226.11;106964;1257;124432;-87
2023/01/18 07:56:53;;;;;;;;;;;;;;;0.26;83.71;99229.67;106843;1261;61382;-90
2023/01/18 07:59:32;;;;;;;;;;;;;;;0.33;83.66;99231.33;106917;1256;124599;-87
2023/01/18 08:02:02;;;;;;;;;;;;;;;0.40;83.44;99235.73;106973;1257;73348;-88
2023/01/18 08:11:18;;;;;;;;;;;;;;;0.78;83.64;99234.71;107343;1258;59870;-92
2023/01/18 08:14:01;;;;;;;;;;;;;;;0.90;83.46;99231.21;107293;1259;61345;-92
2023/01/18 08:21:04;;;;;;;;;;;;;;;1.11;83.26;99223.67;106830;1267;65552;-89
2023/01/18 08:23:53;;;;;;;;;;;;;;;1.17;83.13;99209.05;106393;1270;72582;-95
2023/01/18 08:26:21;;;;;;;;;;;;;;;1.23;82.95;99205.83;107606;1256;78929;-90
2023/01/18 08:28:48;;;;;;;;;;;;;;;1.28;82.94;99208.97;108021;1257;61209;-90
2023/01/18 08:31:18;;;;;;;;;;;;;;;1.33;82.73;99210.52;107630;1257;135747;-90
2023/01/18 08:33:46;;;;;;;;;;;;;;;1.42;83.03;99211.71;107460;1256;65812;-90
2023/01/18 08:36:20;;;;;;;;;;;;;;;1.50;82.86;99211.84;107337;1259;125345;-89
2023/01/18 08:38:50;;;;;;;;;;;;;;;1.53;82.72;99209.54;107435;1264;61255;-90
2023/01/18 08:41:18;;;;;;;;;;;;;;;1.56;82.66;99214.64;107738;1256;61211;-90
2023/01/18 08:43:49;;;;;;;;;;;;;;;1.58;82.67;99212.44;108593;1257;124539;-90
2023/01/18 08:46:16;;;;;;;;;;;;;;;1.61;82.51;99218.10;108827;1257;67422;-91
2023/01/18 08:48:43;;;;;;;;;;;;;;;1.63;82.53;99219.23;108540;1257;125151;-90
2023/01/18 08:51:10;;;;;;;;;;;;;;;1.65;82.46;99221.20;108631;1262;59802;-89
2023/01/18 08:53:37;;;;;;;;;;;;;;;1.66;82.42;99218.63;108651;1256;124476;-90
2023/01/18 08:56:05;;;;;;;;;;;;;;;1.73;82.56;99219.23;108822;1257;73781;-90
2023/01/18 08:58:32;;;;;;;;;;;;;;;1.82;82.62;99224.20;108656;1257;67454;-91
2023/01/18 09:01:00;;;;;;;;;;;;;;;1.89;82.46;99224.80;108842;1256;125285;-90
2023/01/18 09:03:54;;;;;;;;;;;;;;;1.94;82.32;99225.32;108807;1260;59536;-90
2023/01/18 09:06:50;;;;;;;;;;;;;;;1.97;82.08;99218.67;108594;1256;124339;-90
2023/01/18 09:09:44;;;;;;;;;;;;;;;1.99;82.18;99216.48;108753;1257;76986;-90
2023/01/18 09:12:42;;;;;;;;;;;;;;;2.06;82.12;99215.88;108733;1256;124501;-90
2023/01/18 09:16:18;;;;;;;;;;;;;;;2.12;81.95;99217.31;108834;1257;71387;-90
2023/01/18 09:22:36;;;;;;;;;;;;;;;2.25;82.16;99216.52;107177;1276;60999;-90
2023/01/18 09:25:31;;;;;;;;;;;;;;;2.38;82.08;99216.92;107364;1270;125118;-90
2023/01/18 09:27:58;;;;;;;;;;;;;;;2.45;82.26;99216.82;107666;1271;65675;-90
2023/01/18 09:30:25;;;;;;;;;;;;;;;2.58;82.18;99218.27;107688;1275;123754;-90
2023/01/18 09:32:53;;;;;;;;;;;;;;;2.69;82.32;99226.42;108140;1263;59246;-90
2023/01/18 09:35:20;;;;;;;;;;;;;;;2.80;82.21;99233.85;108227;1263;61012;-90
2023/01/18 09:37:47;;;;;;;;;;;;;;;2.87;82.07;99233.06;108299;1263;124394;-90
2023/01/18 09:40:17;;;;;;;;;;;;;;;2.86;81.65;99231.97;108363;1263;66316;-89
2023/01/18 09:42:44;;;;;;;;;;;;;;;2.87;81.77;99230.45;108206;1268;124319;-90
2023/01/18 09:45:20;;;;;;;;;;;;;;;2.97;81.76;99226.59;108255;1263;59256;-90
2023/01/18 09:47:47;;;;;;;;;;;;;;;3.02;81.76;99224.52;108336;1263;123837;-90
2023/01/18 09:50:15;;;;;;;;;;;;;;;3.04;81.57;99216.44;108252;1263;73630;-90
2023/01/18 09:52:42;;;;;;;;;;;;;;;3.08;81.48;99218.27;108222;1263;67182;-90
2023/01/18 09:55:27;;;;;;;;;;;;;;;3.08;81.38;99219.15;108668;1256;124539;-90
2023/01/18 09:57:58;;;;;;;;;;;;;;;3.15;81.66;99218.48;108796;1261;59432;-90
2023/01/18 10:00:26;;;;;;;;;;;;;;;3.26;81.81;99214.48;108710;1257;124700;-90
2023/01/18 10:02:59;;;;;;;;;;;;;;;3.32;81.60;99210.85;108870;1256;75252;-90
2023/01/18 10:05:27;;;;;;;;;;;;;;;3.35;81.55;99205.70;108840;1263;67492;-90
2023/01/18 10:08:10;;;;;;;;;;;;;;;3.38;81.57;99197.81;108742;1256;124153;-90
2023/01/18 10:10:44;;;;;;;;;;;;;;;3.39;81.54;99189.54;108842;1257;58978;-90
2023/01/18 10:14:30;;;;;;;;;;;;;;;3.39;81.41;99182.10;108863;1255;62396;-90
2023/01/18 10:20:49;;;;;;;;;;;;;;;3.53;81.99;99170.50;108748;1258;125101;-90
2023/01/18 10:27:12;;;;;;;;;;;;;;;3.72;82.11;99165.99;108012;1264;59315;-90
2023/01/18 10:29:43;;;;;;;;;;;;;;;3.70;81.90;99160.21;108558;1257;59444;-90
2023/01/18 10:32:13;;;;;;;;;;;;;;;3.71;81.94;99165.27;108925;1257;123839;-90
2023/01/18 10:34:42;;;;;;;;;;;;;;;3.69;81.82;99167.66;108925;1256;65757;-90
2023/01/18 10:37:13;;;;;;;;;;;;;;;3.67;81.94;99169.17;108727;1256;124985;-90
2023/01/18 10:39:45;;;;;;;;;;;;;;;3.72;82.15;99172.92;108802;1256;59164;-90
2023/01/18 10:42:23;;;;;;;;;;;;;;;3.74;82.05;99168.46;108785;1260;124589;-90
2023/01/18 10:52:02;;;;;;;;;;;;;;;3.92;82.27;99155.76;108946;1256;71444;-90
2023/01/18 10:54:40;;;;;;;;;;;;;;;3.95;82.15;99150.11;108494;1261;124516;-90
2023/01/18 10:57:24;;;;;;;;;;;;;;;3.99;82.16;99150.04;108549;1260;60154;-90
2023/01/18 11:07:37;;;;;;;;;;;;;;;4.26;81.78;99137.52;107680;1273;72964;-90
2023/01/18 11:24:38;;;;;;;;;;;;;;;4.32;81.77;99123.77;105238;1280;71756;-89
2023/01/18 11:28:02;;;;;;;;;;;;;;;4.31;81.53;99127.04;106327;1286;59399;-90
2023/01/18 11:30:39;;;;;;;;;;;;;;;4.26;81.50;99132.48;105622;1292;125456;-89
2023/01/18 11:41:01;;;;;;;;;;;;;;;4.24;81.66;99138.17;106068;1288;71120;-90
2023/01/18 11:59:08;;;;;;;;;;;;;;;4.23;81.62;99136.75;107730;1270;73003;-90
2023/01/18 12:12:43;;;;;;;;;;;;;;;4.31;81.66;99155.34;108357;1261;67314;-89
2023/01/18 12:18:51;;;;;;;;;;;;;;;4.36;81.74;99164.67;108514;1262;59011;-89
2023/01/18 12:21:19;;;;;;;;;;;;;;;4.42;81.77;99159.09;108492;1263;59993;-90
2023/01/18 12:31:05;;;;;;;;;;;;;;;4.53;81.73;99150.13;108158;1268;71478;-90
2023/01/18 12:37:25;;;;;;;;;;;;;;;4.52;81.29;99139.88;108826;1259;59059;-90
2023/01/18 12:40:25;;;;;;;;;;;;;;;4.45;81.28;99140.39;108581;1260;75659;-90
2023/01/18 12:47:02;;;;;;;;;;;;;;;4.33;81.31;99139.92;108654;1260;71831;-91
2023/01/18 13:11:24;;;;;;;;;;;;;;;;;;;;;
2023/01/18 13:17:44;;;;;;;;;;;;;;;4.15;81.43;99148.17;106107;1270;65570;-87
2023/01/18 13:20:24;;;;;;;;;;;;;;;4.12;81.48;99144.80;105959;1274;124643;-86
2023/01/18 13:23:00;;;;;;;;;;;;;;;4.06;81.36;99143.77;105821;1272;59785;-86
2023/01/18 13:25:49;;;;;;;;;;;;;;;4.01;81.51;99148.19;106493;1270;61232;-86
2023/01/18 13:28:23;;;;;;;;;;;;;;;3.96;81.61;99144.59;106842;1270;74883;-86
2023/01/18 13:30:57;;;;;;;;;;;;;;;3.98;81.72;99145.33;106626;1275;67392;-86
2023/01/18 13:33:26;;;;;;;;;;;;;;;3.96;81.69;99151.52;106176;1273;72794;-88
2023/01/18 13:36:17;;;;;;;;;;;;;;;3.91;81.79;99146.36;106116;1273;61276;-86
2023/01/18 13:38:56;;;;;;;;;;;;;;;3.89;81.66;99144.58;106148;1275;124630;-85
2023/01/18 13:41:33;;;;;;;;;;;;;;;3.80;81.63;99139.48;106334;1270;74300;-86
2023/01/18 13:44:04;;;;;;;;;;;;;;;3.76;81.79;99135.55;106216;1273;125199;-87
2023/01/18 13:46:41;;;;;;;;;;;;;;;3.74;81.93;99134.30;106672;1273;72471;-87
2023/01/18 13:49:27;;;;;;;;;;;;;;;3.73;81.84;99135.67;106612;1270;59327;-86
2023/01/18 13:51:56;;;;;;;;;;;;;;;3.69;81.93;99132.10;106744;1270;124284;-86
2023/01/18 13:54:27;;;;;;;;;;;;;;;3.67;81.99;99132.04;106690;1276;73671;-86
2023/01/18 13:57:25;;;;;;;;;;;;;;;3.65;81.90;99129.72;106233;1271;125134;-86
2023/01/18 14:00:03;;;;;;;;;;;;;;;3.61;82.07;99134.13;106592;1277;71494;-86
2023/01/18 14:02:40;;;;;;;;;;;;;;;3.61;82.12;99131.70;105380;1283;61285;-86
2023/01/18 14:05:25;;;;;;;;;;;;;;;3.55;81.88;99136.05;105753;1276;61359;-86
2023/01/18 14:07:53;;;;;;;;;;;;;;;3.50;82.11;99141.13;105341;1278;74814;-86
2023/01/18 14:10:30;;;;;;;;;;;;;;;3.48;81.99;99142.27;105388;1276;66912;-86
2023/01/18 14:13:03;;;;;;;;;;;;;;;3.45;81.96;99147.43;105194;1279;70953;-86
2023/01/18 14:15:43;;;;;;;;;;;;;;;3.44;82.27;99153.95;105197;1280;124721;-86
2023/01/18 14:18:19;;;;;;;;;;;;;;;3.41;82.17;99163.75;105276;1280;61304;-86
2023/01/18 14:21:11;;;;;;;;;;;;;;;3.38;82.24;99166.27;105047;1279;124722;-86
2023/01/18 14:24:01;;;;;;;;;;;;;;;3.38;82.13;99169.23;105235;1281;67211;-86
2023/01/18 14:26:37;;;;;;;;;;;;;;;3.39;82.29;99169.77;105393;1280;125057;-86
2023/01/18 14:29:13;;;;;;;;;;;;;;;3.38;82.39;99171.14;105375;1282;61294;-86
2023/01/18 14:31:41;;;;;;;;;;;;;;;3.37;82.44;99179.26;105465;1278;61234;-86
2023/01/18 14:34:27;;;;;;;;;;;;;;;3.36;82.38;99178.71;105190;1283;124385;-87
2023/01/18 14:37:00;;;;;;;;;;;;;;;3.35;82.32;99185.09;105608;1270;65875;-86
2023/01/18 14:39:32;;;;;;;;;;;;;;;3.32;82.31;99186.55;105673;1277;126775;-87
2023/01/18 14:42:00;;;;;;;;;;;;;;;3.32;82.47;99187.61;106130;1273;61228;-87
2023/01/18 14:44:41;;;;;;;;;;;;;;;3.31;82.36;99192.25;105837;1275;124700;-86
2023/01/18 14:47:25;;;;;;;;;;;;;;;3.29;82.42;99198.61;105902;1270;75295;-86
2023/01/18 14:50:04;;;;;;;;;;;;;;;3.28;82.38;99195.30;105841;1270;67096;-87
2023/01/18 14:52:38;;;;;;;;;;;;;;;3.29;82.50;99193.08;106167;1270;72867;-86
2023/01/18 14:58:35;;;;;;;;;;;;;;;3.27;82.38;99203.08;105801;1270;61378;-86
2023/01/18 15:01:05;;;;;;;;;;;;;;;3.26;82.49;99200.96;106089;1270;73446;-85
2023/01/18 15:04:07;;;;;;;;;;;;;;;3.25;82.51;99202.48;105992;1271;125206;-87
2023/01/18 15:06:46;;;;;;;;;;;;;;;3.24;82.54;99205.57;106024;1270;71707;-85
2023/01/18 15:09:20;;;;;;;;;;;;;;;3.22;82.54;99212.63;106081;1270;124755;-90
2023/01/18 15:11:47;;;;;;;;;;;;;;;3.21;82.51;99204.95;106145;1270;61336;-85
2023/01/18 15:14:22;;;;;;;;;;;;;;;3.21;82.67;99210.87;106176;1270;125322;-85
2023/01/18 15:16:52;;;;;;;;;;;;;;;3.20;82.60;99215.86;106199;1270;67511;-84
2023/01/18 15:19:20;;;;;;;;;;;;;;;3.17;82.56;99215.95;106305;1270;70403;-88
2023/01/18 15:21:47;;;;;;;;;;;;;;;3.19;82.59;99223.28;106243;1270;124851;-84
2023/01/18 15:24:21;;;;;;;;;;;;;;;3.19;82.52;99225.88;106152;1272;61429;-85
2023/01/18 15:26:57;;;;;;;;;;;;;;;3.19;82.51;99228.29;106326;1270;125248;-84
2023/01/18 15:29:30;;;;;;;;;;;;;;;3.17;82.46;99227.88;106395;1270;67133;-85
2023/01/18 15:32:16;;;;;;;;;;;;;;;3.17;82.46;99227.54;106358;1269;124479;-85
2023/01/18 15:35:08;;;;;;;;;;;;;;;3.17;82.57;99228.41;106249;1270;59784;-86
2023/01/18 15:37:36;;;;;;;;;;;;;;;3.16;82.48;99226.81;106006;1270;60707;-84
2023/01/18 15:40:19;;;;;;;;;;;;;;;3.17;82.56;99229.61;106238;1269;124896;-86
2023/01/18 15:43:06;;;;;;;;;;;;;;;3.17;82.45;99231.36;105740;1272;66905;-85
2023/01/18 15:45:34;;;;;;;;;;;;;;;3.16;82.61;99229.27;106054;1276;124341;-84
2023/01/18 15:48:26;;;;;;;;;;;;;;;3.20;82.57;99234.94;106594;1273;59909;-84
2023/01/18 15:51:12;;;;;;;;;;;;;;;3.22;82.60;99231.88;106240;1270;124391;-87
2023/01/18 15:53:51;;;;;;;;;;;;;;;3.24;82.38;99230.71;106298;1270;73394;-87
2023/01/18 15:56:37;;;;;;;;;;;;;;;3.23;82.48;99232.91;106322;1270;65848;-84
2023/01/18 15:59:13;;;;;;;;;;;;;;;3.24;82.37;99237.64;106343;1271;72972;-84
2023/01/18 16:01:43;;;;;;;;;;;;;;;3.26;82.34;99237.20;106297;1270;61375;-84
2023/01/18 16:04:21;;;;;;;;;;;;;;;3.24;82.27;99239.04;106196;1270;125039;-84
2023/01/18 16:06:48;;;;;;;;;;;;;;;3.26;82.42;99238.58;106463;1270;74440;-85
2023/01/18 16:09:20;;;;;;;;;;;;;;;3.26;82.42;99241.00;106481;1270;124330;-84
2023/01/18 16:11:55;;;;;;;;;;;;;;;3.27;82.24;99241.23;106203;1270;71986;-85
2023/01/18 16:14:32;;;;;;;;;;;;;;;3.28;82.34;99238.64;106065;1270;125279;-84
2023/01/18 16:17:12;;;;;;;;;;;;;;;3.30;82.31;99243.73;106199;1270;61326;-83
2023/01/18 16:19:43;;;;;;;;;;;;;;;3.32;82.23;99240.48;106679;1270;72111;-84
2023/01/18 16:22:17;;;;;;;;;;;;;;;3.32;82.29;99244.47;105935;1270;124698;-84
2023/01/18 16:24:48;;;;;;;;;;;;;;;3.32;82.26;99247.58;105963;1271;73308;-84
2023/01/18 16:27:17;;;;;;;;;;;;;;;3.31;82.17;99246.36;105730;1270;124552;-85
2023/01/18 16:29:51;;;;;;;;;;;;;;;3.32;82.28;99253.83;105980;1270;61162;-84
2023/01/18 16:32:27;;;;;;;;;;;;;;;3.31;82.29;99251.04;105788;1270;125944;-85
2023/01/18 16:34:56;;;;;;;;;;;;;;;3.30;82.15;99252.05;106038;1273;67076;-85
2023/01/18 16:37:32;;;;;;;;;;;;;;;3.29;82.14;99253.41;106066;1270;72569;-84